Ah Gwah Ching, Minnesota
Current Conditions -  °F | °C
As of 11:15 AM on Thursday 18 Dec 2014 (Local Time) from KY49 Reporting Station
Light Snow Light Snow  
Wind Chill: 14°   Ceiling: 1200
Heat Index: 14°   Visibility: 3mi
Dew Point: 11°   Wind: 3mph
Humidity: 88%   Direction: 150°SSE
Pressure: 30.25"   Gusts: NA
Location:  47.08°N, 94.57°W
Report Text: KY49 181715Z AUTO 15003KT 3SM -SN OVC012 M10/M11 A3025 RMK AO2 T10991115
Loading
Personal Weather Stations






























Interactive Weather Map New forecast layout! Learn more

10-Day Weather Forecast

Advertisements
Track Severe Weather on mobile